createdAt,value
2023-10-19T00:00:40.268Z,82.23
2023-10-19T00:01:40.360Z,82.33
2023-10-19T00:02:40.305Z,82.94
2023-10-19T00:03:40.298Z,83.04
2023-10-19T00:04:40.248Z,82.94
2023-10-19T00:05:40.212Z,82.94
2023-10-19T00:06:40.232Z,82.73
2023-10-19T00:07:40.208Z,82.64
2023-10-19T00:08:40.203Z,83.42
2023-10-19T00:09:40.148Z,84.34
2023-10-19T00:10:40.221Z,84.54
2023-10-19T00:11:40.130Z,84.20
2023-10-19T00:12:40.129Z,83.93
2023-10-19T00:13:40.285Z,84.20
2023-10-19T00:14:40.181Z,84.16
2023-10-19T00:15:40.081Z,83.45
2023-10-19T00:16:40.156Z,83.10
2023-10-19T00:17:40.097Z,83.14
2023-10-19T00:18:40.084Z,83.04
2023-10-19T00:19:40.074Z,83.99
2023-10-19T00:20:40.075Z,84.05
2023-10-19T00:21:40.082Z,83.54
2023-10-19T00:22:40.036Z,83.34
2023-10-19T00:23:40.059Z,83.75
2023-10-19T00:24:39.978Z,83.45
2023-10-19T00:25:40.055Z,83.31
2023-10-19T00:26:39.956Z,83.10
2023-10-19T00:27:39.963Z,82.70
2023-10-19T00:28:39.991Z,82.15
2023-10-19T00:29:39.919Z,82.43
2023-10-19T00:30:39.944Z,83.45
2023-10-19T00:31:40.014Z,84.16
2023-10-19T00:32:40.108Z,84.50
2023-10-19T00:33:39.932Z,84.50
2023-10-19T00:34:39.981Z,83.95
2023-10-19T00:35:39.863Z,84.60
2023-10-19T00:36:39.858Z,84.80
2023-10-19T00:37:39.901Z,84.60
2023-10-19T00:38:39.840Z,84.20
2023-10-19T00:39:39.829Z,84.40
2023-10-19T00:40:39.904Z,84.16
2023-10-19T00:41:39.816Z,83.54
2023-10-19T00:42:39.808Z,83.75
2023-10-19T00:43:39.850Z,84.09
2023-10-19T00:44:39.763Z,83.54
2023-10-19T00:45:39.785Z,83.75
2023-10-19T00:46:39.804Z,84.60
2023-10-19T00:47:39.745Z,85.01
2023-10-19T00:48:39.794Z,85.11
2023-10-19T00:49:39.752Z,84.74
2023-10-19T00:50:39.704Z,85.46
2023-10-19T00:51:39.686Z,85.52
2023-10-19T00:52:39.739Z,85.11
2023-10-19T00:53:39.645Z,85.07
2023-10-19T00:54:39.690Z,83.91
2023-10-19T00:55:39.692Z,84.26
2023-10-19T00:56:39.675Z,84.16
2023-10-19T00:57:39.617Z,84.70
2023-10-19T00:58:39.630Z,85.21
2023-10-19T00:59:39.604Z,84.36
2023-10-19T01:00:39.621Z,84.77
2023-10-19T01:01:39.688Z,84.01
2023-10-19T01:02:39.643Z,84.05
2023-10-19T01:03:39.696Z,83.45
2023-10-19T01:04:39.610Z,84.40
2023-10-19T01:05:39.554Z,84.91
2023-10-19T01:06:39.513Z,84.05
2023-10-19T01:07:39.600Z,84.46
2023-10-19T01:08:39.495Z,84.16
2023-10-19T01:09:39.478Z,84.26
2023-10-19T01:10:39.533Z,83.95
2023-10-19T01:11:39.556Z,84.30
2023-10-19T01:12:39.425Z,84.87
2023-10-19T01:13:39.571Z,84.77
2023-10-19T01:14:39.411Z,84.50
2023-10-19T01:15:39.433Z,85.25
2023-10-19T01:16:39.537Z,86.22
2023-10-19T01:17:39.502Z,86.13
2023-10-19T01:18:39.352Z,85.92
2023-10-19T01:19:39.355Z,85.82
2023-10-19T01:20:39.370Z,85.27
2023-10-19T01:21:39.336Z,84.87
2023-10-19T01:22:39.397Z,84.87
2023-10-19T01:23:39.317Z,85.17
2023-10-19T01:24:39.289Z,85.21
2023-10-19T01:25:39.326Z,85.72
2023-10-19T01:26:39.282Z,86.37
2023-10-19T01:27:39.261Z,86.13
2023-10-19T01:28:39.269Z,86.22
2023-10-19T01:29:39.267Z,85.68
2023-10-19T01:30:39.298Z,84.97
2023-10-19T01:31:39.385Z,84.93
2023-10-19T01:32:39.245Z,84.77
2023-10-19T01:33:39.190Z,85.47
2023-10-19T01:34:39.267Z,86.22
2023-10-19T01:35:39.192Z,86.02
2023-10-19T01:36:39.189Z,87.08
2023-10-19T01:37:39.383Z,86.94
2023-10-19T01:38:39.130Z,86.69
2023-10-19T01:39:39.182Z,85.58
2023-10-19T01:40:39.161Z,85.68
2023-10-19T01:41:39.101Z,85.44
2023-10-19T01:42:39.099Z,85.38
2023-10-19T01:43:39.245Z,85.58
2023-10-19T01:44:39.089Z,85.24
2023-10-19T01:45:39.100Z,85.38
2023-10-19T01:46:39.103Z,86.08
2023-10-19T01:47:39.114Z,85.88
2023-10-19T01:48:39.052Z,85.78
2023-10-19T01:49:39.082Z,85.47
2023-10-19T01:50:39.018Z,85.68
2023-10-19T01:51:39.025Z,86.19
2023-10-19T01:52:39.071Z,85.50
2023-10-19T01:53:39.000Z,84.58
2023-10-19T01:54:38.986Z,84.83
2023-10-19T01:55:39.198Z,85.07
2023-10-19T01:56:38.985Z,85.68
2023-10-19T01:57:38.999Z,86.39
2023-10-19T01:58:38.939Z,86.13
2023-10-19T01:59:38.923Z,87.04
2023-10-19T02:00:38.924Z,86.69
2023-10-19T02:01:39.306Z,86.39
2023-10-19T02:02:38.941Z,85.44
2023-10-19T02:03:38.991Z,86.49
2023-10-19T02:04:38.909Z,86.25
2023-10-19T02:05:38.830Z,86.19
2023-10-19T02:06:38.863Z,86.19
2023-10-19T02:07:38.826Z,86.80
2023-10-19T02:08:38.811Z,86.59
2023-10-19T02:09:38.807Z,86.29
2023-10-19T02:10:38.790Z,85.94
2023-10-19T02:11:38.761Z,85.44
2023-10-19T02:12:38.759Z,84.99
2023-10-19T02:13:38.779Z,85.33
2023-10-19T02:14:38.777Z,86.08
2023-10-19T02:15:38.718Z,86.83
2023-10-19T02:16:38.752Z,87.10
2023-10-19T02:17:38.786Z,86.59
2023-10-19T02:18:38.680Z,86.39
2023-10-19T02:19:38.705Z,87.00
2023-10-19T02:20:41.348Z,86.15
2023-10-19T02:21:38.643Z,85.74
2023-10-19T02:22:38.689Z,85.64
2023-10-19T02:23:38.774Z,85.30
2023-10-19T02:24:38.652Z,86.05
2023-10-19T02:25:38.612Z,85.39
2023-10-19T02:26:38.648Z,84.63
2023-10-19T02:27:38.599Z,85.74
2023-10-19T02:28:38.692Z,85.74
2023-10-19T02:29:38.581Z,85.33
2023-10-19T02:30:38.609Z,85.33
2023-10-19T02:31:38.586Z,86.05
2023-10-19T02:32:38.600Z,85.50
2023-10-19T02:33:38.570Z,85.68
2023-10-19T02:34:38.595Z,86.39
2023-10-19T02:35:38.607Z,86.69
2023-10-19T02:36:38.500Z,86.59
2023-10-19T02:37:38.555Z,86.25
2023-10-19T02:38:38.454Z,85.39
2023-10-19T02:39:38.475Z,85.24
2023-10-19T02:40:38.469Z,85.80
2023-10-19T02:41:38.436Z,84.89
2023-10-19T02:42:38.433Z,84.95
2023-10-19T02:43:38.448Z,84.58
2023-10-19T02:44:38.438Z,85.13
2023-10-19T02:45:38.518Z,85.39
2023-10-19T02:46:38.455Z,85.09
2023-10-19T02:47:38.410Z,84.64
2023-10-19T02:48:38.354Z,84.34
2023-10-19T02:49:38.384Z,84.44
2023-10-19T02:50:38.340Z,84.20
2023-10-19T02:51:38.317Z,83.29
2023-10-19T02:52:38.354Z,83.73
2023-10-19T02:53:38.303Z,84.55
2023-10-19T02:54:38.281Z,84.38
2023-10-19T02:55:38.361Z,85.39
2023-10-19T02:56:38.253Z,85.19
2023-10-19T02:57:38.275Z,84.95
2023-10-19T02:58:38.311Z,84.28
2023-10-19T02:59:38.233Z,85.03
2023-10-19T03:00:38.316Z,85.44
2023-10-19T03:01:38.262Z,86.15
2023-10-19T03:02:38.300Z,87.00
2023-10-19T03:03:38.189Z,86.65
2023-10-19T03:04:38.269Z,85.64
2023-10-19T03:05:38.175Z,85.50
2023-10-19T03:06:38.210Z,85.30
2023-10-19T03:07:38.164Z,85.19
2023-10-19T03:08:38.141Z,85.60
2023-10-19T03:09:38.367Z,85.19
2023-10-19T03:10:38.140Z,85.39
2023-10-19T03:11:38.107Z,85.05
2023-10-19T03:12:38.118Z,85.19
2023-10-19T03:13:38.097Z,85.60
2023-10-19T03:14:38.095Z,85.74
2023-10-19T03:15:38.061Z,86.31
2023-10-19T03:16:38.221Z,85.70
2023-10-19T03:17:38.746Z,85.66
2023-10-19T03:18:38.062Z,85.70
2023-10-19T03:19:38.061Z,86.00
2023-10-19T03:20:37.990Z,85.56
2023-10-19T03:21:37.997Z,85.05
2023-10-19T03:22:37.999Z,84.50
2023-10-19T03:23:37.982Z,84.50
2023-10-19T03:24:38.268Z,84.44
2023-10-19T03:25:37.961Z,85.70
2023-10-19T03:26:38.002Z,85.25
2023-10-19T03:27:37.903Z,84.61
2023-10-19T03:28:37.906Z,84.55
2023-10-19T03:29:37.891Z,84.64
2023-10-19T03:30:37.920Z,85.36
2023-10-19T03:31:37.876Z,84.95
2023-10-19T03:32:37.878Z,85.50
2023-10-19T03:33:37.919Z,85.62
2023-10-19T03:34:40.082Z,84.70
2023-10-19T03:35:37.874Z,84.30
2023-10-19T03:36:37.792Z,84.41
2023-10-19T03:37:37.816Z,84.75
2023-10-19T03:38:37.768Z,85.21
2023-10-19T03:39:37.758Z,84.61
2023-10-19T03:40:37.813Z,84.50
2023-10-19T03:41:37.836Z,85.01
2023-10-19T03:42:37.749Z,85.11
2023-10-19T03:43:37.758Z,84.85
2023-10-19T03:44:37.722Z,85.15
2023-10-19T03:45:37.738Z,85.76
2023-10-19T03:46:37.815Z,85.66
2023-10-19T03:47:37.789Z,85.21
2023-10-19T03:48:37.669Z,85.56
2023-10-19T03:49:37.787Z,85.30
2023-10-19T03:50:37.630Z,86.27
2023-10-19T03:51:37.641Z,85.96
2023-10-19T03:52:37.639Z,85.96
2023-10-19T03:53:37.590Z,85.96
2023-10-19T03:54:37.584Z,85.86
2023-10-19T03:55:37.619Z,85.01
2023-10-19T03:56:37.560Z,84.81
2023-10-19T03:57:37.561Z,84.97
2023-10-19T03:58:37.604Z,84.30
2023-10-19T03:59:37.543Z,84.41
2023-10-19T04:00:37.512Z,84.91
2023-10-19T04:01:37.586Z,85.72
2023-10-19T04:02:37.686Z,84.67
2023-10-19T04:03:37.505Z,84.27
2023-10-19T04:04:37.724Z,84.81
2023-10-19T04:05:37.485Z,84.50
2023-10-19T04:06:37.454Z,85.72
2023-10-19T04:07:37.492Z,85.25
2023-10-19T04:08:37.428Z,85.46
2023-10-19T04:09:37.482Z,85.25
2023-10-19T04:10:37.478Z,85.96
2023-10-19T04:11:37.405Z,86.47
2023-10-19T04:12:37.398Z,85.52
2023-10-19T04:13:37.509Z,86.02
2023-10-19T04:14:37.367Z,85.56
2023-10-19T04:15:37.362Z,85.21
2023-10-19T04:16:37.451Z,85.46
2023-10-19T04:17:37.353Z,85.96
2023-10-19T04:18:37.374Z,86.37
2023-10-19T04:19:37.371Z,86.27
2023-10-19T04:20:37.298Z,86.16
2023-10-19T04:21:37.388Z,85.96
2023-10-19T04:22:37.383Z,86.37
2023-10-19T04:23:37.488Z,86.86
2023-10-19T04:24:37.252Z,87.32
2023-10-19T04:25:37.277Z,87.02
2023-10-19T04:26:37.295Z,86.47
2023-10-19T04:27:37.282Z,86.91
2023-10-19T04:28:37.302Z,86.37
2023-10-19T04:29:37.197Z,87.32
2023-10-19T04:30:37.255Z,87.12
2023-10-19T04:31:37.233Z,87.22
2023-10-19T04:32:37.338Z,87.12
2023-10-19T04:33:37.750Z,86.83
2023-10-19T04:34:37.182Z,85.62
2023-10-19T04:35:37.313Z,86.27
2023-10-19T04:36:37.294Z,86.51
2023-10-19T04:37:37.149Z,87.52
2023-10-19T04:38:37.287Z,87.12
2023-10-19T04:39:37.143Z,86.98
2023-10-19T04:40:37.419Z,86.16
2023-10-19T04:41:37.667Z,86.07
2023-10-19T04:42:37.117Z,86.27
2023-10-19T04:43:37.153Z,86.37
2023-10-19T04:44:37.039Z,86.41
2023-10-19T04:45:37.207Z,86.68
2023-10-19T04:46:37.168Z,86.68
2023-10-19T04:47:37.522Z,86.02
2023-10-19T04:48:37.016Z,85.31
2023-10-19T04:49:37.112Z,85.76
2023-10-19T04:50:36.997Z,86.88
2023-10-19T04:51:37.261Z,86.07
2023-10-19T04:52:37.010Z,86.16
2023-10-19T04:53:36.999Z,86.77
2023-10-19T04:54:37.057Z,86.57
2023-10-19T04:55:37.015Z,86.98
2023-10-19T04:56:36.905Z,86.98
2023-10-19T04:57:36.897Z,86.68
2023-10-19T04:58:36.893Z,87.18
2023-10-19T04:59:36.879Z,86.47
2023-10-19T05:00:36.932Z,86.77
2023-10-19T05:01:36.969Z,86.63
2023-10-19T05:02:36.964Z,86.57
2023-10-19T05:03:36.960Z,86.47
2023-10-19T05:04:36.889Z,86.88
2023-10-19T05:05:38.018Z,87.08
2023-10-19T05:06:36.845Z,87.08
2023-10-19T05:07:37.099Z,87.18
2023-10-19T05:08:36.877Z,86.82
2023-10-19T05:09:36.832Z,88.20
2023-10-19T05:10:36.845Z,87.08
2023-10-19T05:11:36.857Z,87.20
2023-10-19T05:12:36.749Z,86.13
2023-10-19T05:13:36.852Z,85.82
2023-10-19T05:14:36.712Z,86.33
2023-10-19T05:15:36.700Z,86.83
2023-10-19T05:16:36.758Z,86.29
2023-10-19T05:17:36.800Z,85.52
2023-10-19T05:18:36.701Z,85.44
2023-10-19T05:19:38.421Z,84.77
2023-10-19T05:20:36.630Z,85.13
2023-10-19T05:21:36.677Z,84.69
2023-10-19T05:22:36.653Z,84.16
2023-10-19T05:23:36.608Z,84.67
2023-10-19T05:24:36.592Z,85.17
2023-10-19T05:25:36.664Z,85.27
2023-10-19T05:26:36.553Z,85.76
2023-10-19T05:27:36.539Z,86.43
2023-10-19T05:28:36.602Z,85.93
2023-10-19T05:29:36.546Z,86.88
2023-10-19T05:30:36.504Z,87.08
2023-10-19T05:31:36.539Z,87.38
2023-10-19T05:32:36.621Z,86.83
2023-10-19T05:33:36.468Z,86.37
2023-10-19T05:34:36.486Z,87.28
2023-10-19T05:35:36.816Z,86.73
2023-10-19T05:36:36.470Z,86.53
2023-10-19T05:37:36.516Z,86.43
2023-10-19T05:38:36.432Z,86.77
2023-10-19T05:39:36.439Z,86.88
2023-10-19T05:40:36.457Z,86.63
2023-10-19T05:41:36.430Z,87.59
2023-10-19T05:42:36.380Z,86.94
2023-10-19T05:43:36.408Z,86.33
2023-10-19T05:44:36.377Z,86.22
2023-10-19T05:45:37.287Z,85.82
2023-10-19T05:46:36.447Z,87.22
2023-10-19T05:47:36.417Z,87.48
2023-10-19T05:48:36.351Z,87.28
2023-10-19T05:49:36.356Z,87.38
2023-10-19T05:50:36.273Z,87.04
2023-10-19T05:51:36.288Z,87.04
2023-10-19T05:52:36.314Z,86.83
2023-10-19T05:53:36.245Z,86.29
2023-10-19T05:54:36.282Z,85.88
2023-10-19T05:55:36.251Z,86.73
2023-10-19T05:56:36.224Z,87.04
2023-10-19T05:57:36.198Z,86.63
2023-10-19T05:58:39.033Z,86.63
2023-10-19T05:59:36.198Z,87.00
2023-10-19T06:00:36.202Z,86.08
2023-10-19T06:01:36.249Z,86.77
2023-10-19T06:02:36.353Z,87.04
2023-10-19T06:03:36.278Z,87.24
2023-10-19T06:04:36.304Z,87.34
2023-10-19T06:05:36.106Z,86.83
2023-10-19T06:06:36.124Z,86.59
2023-10-19T06:07:36.126Z,87.34
2023-10-19T06:08:36.125Z,87.00
2023-10-19T06:09:36.069Z,86.49
2023-10-19T06:10:36.164Z,87.00
2023-10-19T06:11:36.032Z,86.73
2023-10-19T06:12:36.038Z,87.54
2023-10-19T06:13:36.085Z,86.90
2023-10-19T06:14:36.269Z,87.00
2023-10-19T06:15:36.053Z,86.90
2023-10-19T06:16:36.118Z,86.94
2023-10-19T06:17:36.134Z,87.34
2023-10-19T06:18:36.089Z,87.36
2023-10-19T06:19:35.987Z,86.19
2023-10-19T06:20:35.955Z,86.69
2023-10-19T06:21:35.928Z,86.90
2023-10-19T06:22:36.024Z,86.63
2023-10-19T06:23:35.927Z,87.34
2023-10-19T06:24:35.892Z,87.34
2023-10-19T06:25:36.038Z,87.48
2023-10-19T06:26:35.863Z,87.81
2023-10-19T06:27:35.864Z,87.51
2023-10-19T06:28:35.864Z,87.20
2023-10-19T06:29:35.838Z,87.00
2023-10-19T06:30:35.908Z,87.54
2023-10-19T06:31:36.016Z,88.42
2023-10-19T06:32:37.103Z,87.10
2023-10-19T06:33:36.023Z,86.76
2023-10-19T06:34:35.820Z,86.55
2023-10-19T06:35:35.813Z,87.00
2023-10-19T06:36:35.776Z,86.79
2023-10-19T06:37:35.848Z,87.10
2023-10-19T06:38:35.725Z,87.00
2023-10-19T06:39:35.706Z,87.30
2023-10-19T06:40:35.771Z,87.00
2023-10-19T06:41:35.805Z,86.85
2023-10-19T06:42:35.672Z,87.40
2023-10-19T06:43:35.733Z,87.26
2023-10-19T06:44:35.683Z,86.45
2023-10-19T06:45:35.671Z,86.79
2023-10-19T06:46:35.722Z,87.00
2023-10-19T06:47:35.697Z,87.34
2023-10-19T06:48:35.606Z,87.60
2023-10-19T06:49:36.082Z,87.36
2023-10-19T06:50:35.585Z,87.30
2023-10-19T06:51:35.581Z,87.00
2023-10-19T06:52:35.610Z,87.05
2023-10-19T06:53:35.556Z,87.02
2023-10-19T06:54:35.580Z,86.00
2023-10-19T06:55:35.541Z,86.15
2023-10-19T06:56:35.547Z,86.85
2023-10-19T06:57:35.536Z,86.82
2023-10-19T06:58:35.804Z,86.10
2023-10-19T06:59:35.492Z,86.15
2023-10-19T07:00:35.524Z,86.35
2023-10-19T07:01:35.556Z,86.10
2023-10-19T07:02:35.626Z,85.80
2023-10-19T07:03:35.468Z,86.35
2023-10-19T07:04:35.536Z,86.55
2023-10-19T07:05:35.430Z,87.05
2023-10-19T07:06:35.818Z,86.85
2023-10-19T07:07:35.472Z,86.65
2023-10-19T07:08:35.402Z,86.21
2023-10-19T07:09:35.366Z,86.85
2023-10-19T07:10:35.413Z,86.47
2023-10-19T07:11:35.429Z,86.37
2023-10-19T07:12:35.350Z,85.60
2023-10-19T07:13:35.539Z,86.55
2023-10-19T07:14:35.319Z,87.05
2023-10-19T07:15:35.308Z,86.71
2023-10-19T07:16:35.424Z,85.96
2023-10-19T07:17:35.362Z,85.56
2023-10-19T07:18:35.294Z,85.11
2023-10-19T07:19:35.292Z,84.91
2023-10-19T07:20:35.250Z,86.16
2023-10-19T07:21:35.230Z,85.52
2023-10-19T07:22:35.319Z,85.62
2023-10-19T07:23:35.423Z,85.22
2023-10-19T07:24:35.185Z,84.31
2023-10-19T07:25:35.325Z,85.11
2023-10-19T07:26:35.171Z,84.91
2023-10-19T07:27:38.402Z,85.66
2023-10-19T07:28:37.751Z,85.42
2023-10-19T07:29:35.474Z,85.28
2023-10-19T07:30:35.137Z,84.37
2023-10-19T07:31:35.253Z,84.33
2023-10-19T07:32:35.162Z,84.03
2023-10-19T07:33:35.173Z,84.47
2023-10-19T07:34:35.305Z,84.87
2023-10-19T07:35:36.920Z,84.57
2023-10-19T07:36:35.144Z,85.22
2023-10-19T07:37:35.097Z,85.14
2023-10-19T07:38:35.046Z,84.03
2023-10-19T07:39:35.096Z,84.63
2023-10-19T07:40:35.027Z,84.67
2023-10-19T07:41:35.241Z,85.31
2023-10-19T07:42:35.013Z,84.97
2023-10-19T07:43:35.023Z,85.52
2023-10-19T07:44:35.047Z,86.57
2023-10-19T07:45:35.013Z,85.62
2023-10-19T07:46:35.012Z,85.36
2023-10-19T07:47:35.034Z,86.93
2023-10-19T07:48:34.930Z,85.82
2023-10-19T07:49:35.081Z,85.48
2023-10-19T07:50:35.009Z,85.93
2023-10-19T07:51:35.692Z,85.28
2023-10-19T07:52:34.946Z,85.17
2023-10-19T07:53:34.856Z,85.62
2023-10-19T07:54:34.857Z,85.48
2023-10-19T07:55:34.879Z,84.93
2023-10-19T07:56:35.586Z,84.67
2023-10-19T07:57:35.037Z,85.02
2023-10-19T07:58:34.828Z,85.58
2023-10-19T07:59:34.803Z,84.63
2023-10-19T08:00:34.867Z,84.63
2023-10-19T08:01:34.855Z,84.81
2023-10-19T08:02:34.801Z,86.37
2023-10-19T08:03:34.822Z,86.57
2023-10-19T08:04:35.042Z,86.83
2023-10-19T08:05:35.073Z,85.64
2023-10-19T08:06:34.833Z,85.10
2023-10-19T08:07:34.743Z,83.64
2023-10-19T08:08:34.721Z,83.92
2023-10-19T08:09:34.681Z,85.24
2023-10-19T08:10:34.705Z,86.22
2023-10-19T08:11:34.653Z,86.98
2023-10-19T08:12:34.660Z,87.44
2023-10-19T08:13:34.698Z,86.95
2023-10-19T08:14:34.627Z,86.35
2023-10-19T08:15:34.647Z,85.25
2023-10-19T08:16:34.654Z,84.45
2023-10-19T08:17:34.655Z,84.49
2023-10-19T08:18:34.566Z,84.19
2023-10-19T08:19:34.601Z,84.33
2023-10-19T08:20:34.557Z,85.54
2023-10-19T08:21:34.823Z,85.68
2023-10-19T08:22:34.530Z,85.84
2023-10-19T08:23:34.503Z,85.34
2023-10-19T08:24:34.499Z,85.74
2023-10-19T08:25:48.639Z,85.30
2023-10-19T08:26:35.546Z,84.89
2023-10-19T08:27:34.483Z,85.34
2023-10-19T08:28:34.490Z,86.04
2023-10-19T08:29:34.444Z,85.74
2023-10-19T08:30:34.449Z,85.88
2023-10-19T08:31:34.520Z,86.49
2023-10-19T08:32:34.558Z,86.15
2023-10-19T08:33:34.423Z,86.10
2023-10-19T08:34:34.605Z,84.69
2023-10-19T08:35:34.406Z,85.99
2023-10-19T08:36:34.376Z,85.60
2023-10-19T08:37:34.392Z,85.54
2023-10-19T08:38:34.402Z,86.35
2023-10-19T08:39:34.364Z,86.19
2023-10-19T08:40:34.343Z,86.15
2023-10-19T08:41:34.391Z,85.90
2023-10-19T08:42:34.352Z,85.40
2023-10-19T08:43:34.320Z,85.58
2023-10-19T08:44:34.433Z,86.04
2023-10-19T08:45:34.269Z,86.35
2023-10-19T08:46:34.292Z,85.50
2023-10-19T08:47:34.313Z,85.60
2023-10-19T08:48:34.278Z,85.60
2023-10-19T08:49:34.237Z,85.19
2023-10-19T08:50:34.200Z,86.35
2023-10-19T08:51:34.191Z,85.94
2023-10-19T08:52:37.189Z,85.80
2023-10-19T08:53:34.166Z,85.36
2023-10-19T08:54:34.222Z,84.75
2023-10-19T08:55:48.742Z,85.54
2023-10-19T08:56:35.138Z,87.13
2023-10-19T08:57:34.130Z,86.71
2023-10-19T08:58:34.118Z,86.07
2023-10-19T08:59:34.106Z,84.31
2023-10-19T09:00:34.115Z,83.87
2023-10-19T09:01:34.175Z,84.69
2023-10-19T09:02:34.116Z,85.60
2023-10-19T09:03:34.150Z,85.90
2023-10-19T09:04:34.342Z,84.45
2023-10-19T09:05:34.159Z,85.54
2023-10-19T09:06:34.085Z,86.55
2023-10-19T09:07:34.036Z,86.65
2023-10-19T09:08:34.003Z,86.21
2023-10-19T09:09:34.022Z,85.25
2023-10-19T09:10:34.008Z,84.95
2023-10-19T09:11:33.966Z,85.30
2023-10-19T09:12:33.964Z,85.16
2023-10-19T09:13:33.972Z,84.65
2023-10-19T09:14:33.957Z,84.95
2023-10-19T09:15:33.950Z,85.40
2023-10-19T09:16:33.946Z,84.91
2023-10-19T09:17:33.946Z,84.51
2023-10-19T09:18:33.891Z,83.87
2023-10-19T09:19:33.901Z,84.37
2023-10-19T09:20:33.869Z,83.56
2023-10-19T09:21:33.854Z,84.11
2023-10-19T09:22:33.972Z,83.26
2023-10-19T09:23:33.923Z,83.34
2023-10-19T09:24:33.969Z,84.29
2023-10-19T09:25:33.876Z,84.35
2023-10-19T09:26:33.819Z,84.15
2023-10-19T09:27:33.778Z,84.65
2023-10-19T09:28:33.851Z,84.45
2023-10-19T09:29:33.773Z,84.41
2023-10-19T09:30:33.756Z,83.95
2023-10-19T09:31:33.791Z,84.01
2023-10-19T09:32:33.755Z,83.70
2023-10-19T09:33:33.709Z,84.21
2023-10-19T09:34:34.112Z,83.70
2023-10-19T09:35:33.713Z,84.29
2023-10-19T09:36:33.659Z,84.95
2023-10-19T09:37:33.738Z,85.10
2023-10-19T09:38:33.654Z,85.70
2023-10-19T09:39:33.629Z,84.99
2023-10-19T09:40:33.673Z,85.34
2023-10-19T09:41:33.643Z,85.84
2023-10-19T09:42:33.611Z,86.45
2023-10-19T09:43:33.645Z,85.16
2023-10-19T09:44:33.757Z,85.50
2023-10-19T09:45:33.575Z,85.80
2023-10-19T09:46:33.737Z,84.65
2023-10-19T09:47:33.722Z,85.19
2023-10-19T09:48:33.582Z,85.60
2023-10-19T09:49:33.571Z,85.80
2023-10-19T09:50:33.507Z,85.70
2023-10-19T09:51:33.496Z,85.90
2023-10-19T09:52:33.525Z,85.60
2023-10-19T09:53:33.474Z,85.16
2023-10-19T09:54:33.596Z,85.36
2023-10-19T09:55:33.483Z,85.50
2023-10-19T09:56:33.489Z,86.45
2023-10-19T09:57:33.440Z,85.80
2023-10-19T09:58:33.463Z,85.86
2023-10-19T09:59:33.431Z,85.46
2023-10-19T10:00:33.423Z,85.56
2023-10-19T10:01:33.428Z,85.25
2023-10-19T10:02:33.467Z,85.46
2023-10-19T10:03:33.562Z,85.05
2023-10-19T10:04:33.767Z,85.56
2023-10-19T10:05:33.383Z,85.62
2023-10-19T10:06:33.360Z,84.77
2023-10-19T10:07:41.651Z,84.27
2023-10-19T10:08:34.361Z,83.97
2023-10-19T10:09:33.663Z,83.52
2023-10-19T10:10:33.534Z,83.97
2023-10-19T10:11:33.446Z,83.22
2023-10-19T10:12:33.271Z,84.01
2023-10-19T10:13:33.395Z,84.51
2023-10-19T10:14:33.576Z,84.37
2023-10-19T10:15:33.255Z,83.52
2023-10-19T10:16:33.340Z,83.42
2023-10-19T10:17:33.362Z,83.02
2023-10-19T10:18:33.254Z,83.46
2023-10-19T10:19:33.260Z,83.56
2023-10-19T10:20:33.244Z,83.76
2023-10-19T10:21:33.289Z,84.81
2023-10-19T10:22:33.214Z,84.67
2023-10-19T10:23:33.165Z,83.93
2023-10-19T10:24:33.378Z,83.87
2023-10-19T10:25:33.243Z,84.47
2023-10-19T10:26:33.126Z,83.93
2023-10-19T10:27:33.128Z,82.24
2023-10-19T10:28:33.174Z,82.28
2023-10-19T10:29:33.109Z,82.58
2023-10-19T10:30:33.070Z,82.04
2023-10-19T10:31:33.142Z,82.31
2023-10-19T10:32:33.065Z,83.28
2023-10-19T10:33:33.116Z,82.92
2023-10-19T10:34:33.260Z,83.12
2023-10-19T10:35:33.005Z,82.88
2023-10-19T10:36:33.041Z,83.48
2023-10-19T10:37:32.991Z,82.68
2023-10-19T10:38:33.012Z,83.56
2023-10-19T10:39:32.962Z,83.62
2023-10-19T10:40:33.006Z,84.51
2023-10-19T10:41:32.967Z,84.67
2023-10-19T10:42:32.947Z,84.67
2023-10-19T10:43:32.916Z,84.43
2023-10-19T10:44:33.044Z,83.69
2023-10-19T10:45:32.881Z,83.18
2023-10-19T10:46:33.049Z,82.80
2023-10-19T10:47:32.913Z,81.90
2023-10-19T10:48:32.885Z,81.26
2023-10-19T10:49:32.868Z,82.24
2023-10-19T10:50:32.873Z,82.64
2023-10-19T10:51:32.814Z,82.58
2023-10-19T10:52:32.896Z,83.28
2023-10-19T10:53:32.786Z,83.08
2023-10-19T10:54:33.014Z,82.34
2023-10-19T10:55:32.896Z,81.79
2023-10-19T10:56:32.770Z,81.23
2023-10-19T10:57:32.813Z,82.64
2023-10-19T10:58:32.766Z,81.79
2023-10-19T10:59:32.743Z,81.56
2023-10-19T11:00:32.781Z,82.10
2023-10-19T11:01:32.725Z,81.46
2023-10-19T11:02:32.731Z,81.35
2023-10-19T11:03:32.679Z,80.75
2023-10-19T11:04:32.940Z,81.07
2023-10-19T11:05:32.827Z,80.71
2023-10-19T11:06:32.663Z,80.21
2023-10-19T11:07:32.664Z,81.05
2023-10-19T11:08:32.642Z,80.21
2023-10-19T11:09:32.617Z,80.75
2023-10-19T11:10:32.679Z,81.62
2023-10-19T11:11:32.607Z,80.13
2023-10-19T11:12:32.589Z,79.67
2023-10-19T11:13:32.588Z,80.57
2023-10-19T11:14:32.759Z,79.33
2023-10-19T11:15:32.556Z,79.05
2023-10-19T11:16:32.706Z,78.29
2023-10-19T11:17:32.627Z,79.03
2023-10-19T11:18:32.542Z,79.81
2023-10-19T11:19:32.546Z,80.61
2023-10-19T11:20:32.536Z,80.27
2023-10-19T11:21:32.491Z,80.85
2023-10-19T11:22:32.590Z,81.56
2023-10-19T11:23:32.514Z,82.64
2023-10-19T11:24:32.605Z,82.10
2023-10-19T11:25:32.478Z,81.65
2023-10-19T11:26:32.428Z,80.95
2023-10-19T11:27:32.413Z,80.71
2023-10-19T11:28:32.475Z,80.01
2023-10-19T11:29:33.211Z,81.05
2023-10-19T11:30:32.941Z,80.61
2023-10-19T11:31:32.596Z,80.37
2023-10-19T11:32:32.449Z,80.07
2023-10-19T11:33:32.387Z,79.53
2023-10-19T11:34:32.724Z,79.63
2023-10-19T11:35:32.590Z,79.49
2023-10-19T11:36:32.315Z,78.59
2023-10-19T11:37:32.407Z,78.55
2023-10-19T11:38:33.411Z,77.85
2023-10-19T11:39:32.289Z,77.95
2023-10-19T11:40:32.320Z,78.53
2023-10-19T11:41:32.257Z,79.29
2023-10-19T11:42:32.251Z,78.25
2023-10-19T11:43:32.266Z,77.48
2023-10-19T11:44:32.510Z,78.29
2023-10-19T11:45:32.249Z,78.73
2023-10-19T11:46:32.300Z,79.06
2023-10-19T11:47:32.281Z,79.97
2023-10-19T11:48:32.208Z,79.37
2023-10-19T11:49:32.217Z,79.23
2023-10-19T11:50:32.161Z,79.47
2023-10-19T11:51:32.198Z,79.77
2023-10-19T11:52:32.221Z,79.33
2023-10-19T11:53:32.141Z,79.57
2023-10-19T11:54:32.290Z,80.55
2023-10-19T11:55:32.154Z,81.32
2023-10-19T11:56:32.100Z,80.21
2023-10-19T11:57:32.335Z,80.51
2023-10-19T11:58:32.321Z,79.91
2023-10-19T11:59:32.107Z,80.31
2023-10-19T12:00:32.124Z,80.55
2023-10-19T12:01:32.179Z,80.99
2023-10-19T12:02:32.305Z,81.59
2023-10-19T12:03:32.092Z,82.34
2023-10-19T12:04:32.266Z,82.36
2023-10-19T12:05:32.045Z,81.70
2023-10-19T12:06:32.054Z,81.79
2023-10-19T12:07:32.118Z,82.30
2023-10-19T12:08:31.951Z,81.72
2023-10-19T12:09:32.014Z,80.68
2023-10-19T12:10:31.933Z,80.17
2023-10-19T12:11:31.984Z,79.19
2023-10-19T12:12:32.992Z,78.49
2023-10-19T12:13:31.886Z,79.03
2023-10-19T12:14:32.088Z,78.73
2023-10-19T12:15:31.916Z,78.93
2023-10-19T12:16:31.902Z,79.13
2023-10-19T12:17:32.011Z,78.63
2023-10-19T12:18:31.874Z,79.57
2023-10-19T12:19:31.899Z,78.93
2023-10-19T12:20:31.874Z,78.99
2023-10-19T12:21:31.857Z,78.35
2023-10-19T12:22:31.814Z,77.99
2023-10-19T12:23:31.776Z,78.59
2023-10-19T12:24:32.099Z,78.09
2023-10-19T12:25:39.725Z,78.22
2023-10-19T12:26:32.797Z,78.69
2023-10-19T12:27:31.728Z,77.95
2023-10-19T12:28:31.719Z,77.59
2023-10-19T12:29:31.709Z,78.49
2023-10-19T12:30:31.839Z,79.37
2023-10-19T12:31:31.805Z,79.29
2023-10-19T12:32:31.755Z,78.39
2023-10-19T12:33:31.711Z,79.09
2023-10-19T12:34:32.106Z,78.73
2023-10-19T12:35:31.633Z,78.79
2023-10-19T12:36:31.665Z,78.29
2023-10-19T12:37:31.636Z,79.43
2023-10-19T12:38:31.611Z,79.03
2023-10-19T12:39:31.732Z,78.39
2023-10-19T12:40:31.586Z,78.29
2023-10-19T12:41:31.566Z,78.59
2023-10-19T12:42:31.562Z,78.79
2023-10-19T12:43:31.569Z,78.49
2023-10-19T12:44:31.758Z,78.45
2023-10-19T12:45:31.577Z,77.21
2023-10-19T12:46:31.542Z,77.95
2023-10-19T12:47:31.560Z,77.55
2023-10-19T12:48:31.497Z,78.25
2023-10-19T12:49:31.495Z,77.85
2023-10-19T12:50:31.472Z,77.55
2023-10-19T12:51:31.448Z,77.17
2023-10-19T12:52:31.445Z,77.45